Time;durP1;ratioP1;P1;durP2;ratioP2;P2;SDS_P1;SDS_P2;PMS_P1;PMS_P2;Temp;Humidity;BMP_temperature;BMP_pressure;BME280_temperature;BME280_humidity;BME280_pressure;Samples;Min_cycle;Max_cycle;Signal;HPM_P1;HPM_P2
2023/09/29 00:01:58;;;;;;;9.65;7.80;;;;;;;;;;5039426;28;20092;-85
2023/09/29 00:04:27;;;;;;;8.65;7.57;;;;;;;;;;5030769;28;20057;-86
2023/09/29 00:06:55;;;;;;;8.40;7.60;;;;;;;;;;5049239;28;20117;-86
2023/09/29 00:09:22;;;;;;;9.25;7.38;;;;;;;;;;5034853;28;20103;-86
2023/09/29 00:11:51;;;;;;;7.70;7.00;;;;;;;;;;5033777;28;20049;-86
2023/09/29 00:14:19;;;;;;;7.65;6.85;;;;;;;;;;5036668;28;20069;-86
2023/09/29 00:16:47;;;;;;;8.02;6.70;;;;;;;;;;5034034;28;20054;-85
2023/09/29 00:19:14;;;;;;;7.90;7.10;;;;;;;;;;5050053;28;20065;-83
2023/09/29 00:21:41;;;;;;;8.13;7.20;;;;;;;;;;5059018;28;20069;-81
2023/09/29 00:24:09;;;;;;;7.40;6.78;;;;;;;;;;5038301;28;20064;-86
2023/09/29 00:26:36;;;;;;;9.35;6.93;;;;;;;;;;5038706;28;20053;-86
2023/09/29 00:29:03;;;;;;;7.20;6.50;;;;;;;;;;5037481;28;20128;-86
2023/09/29 00:31:32;;;;;;;10.65;7.90;;;;;;;;;;5036727;28;20053;-85
2023/09/29 00:33:59;;;;;;;10.27;7.90;;;;;;;;;;5036608;28;20549;-86
2023/09/29 00:36:26;;;;;;;8.10;7.05;;;;;;;;;;5036527;28;20045;-86
2023/09/29 00:38:54;;;;;;;9.50;7.70;;;;;;;;;;5033297;28;20046;-86
2023/09/29 00:41:22;;;;;;;8.20;7.40;;;;;;;;;;5018911;28;20046;-86
2023/09/29 00:43:50;;;;;;;9.55;7.65;;;;;;;;;;5036676;28;20096;-83
2023/09/29 00:46:19;;;;;;;7.20;6.43;;;;;;;;;;5033013;28;20157;-85
2023/09/29 00:48:49;;;;;;;10.95;6.28;;;;;;;;;;5016747;28;20559;-86
2023/09/29 00:51:21;;;;;;;8.18;6.95;;;;;;;;;;5018071;28;20404;-86
2023/09/29 00:53:51;;;;;;;9.25;6.95;;;;;;;;;;5036355;28;20052;-86
2023/09/29 00:56:19;;;;;;;7.20;6.50;;;;;;;;;;5032803;28;20046;-86
2023/09/29 00:58:47;;;;;;;7.07;6.38;;;;;;;;;;5029419;28;20061;-85
2023/09/29 01:01:14;;;;;;;9.10;6.15;;;;;;;;;;5017607;28;20065;-85
2023/09/29 01:03:42;;;;;;;6.82;6.13;;;;;;;;;;5036477;28;20080;-86
2023/09/29 01:06:09;;;;;;;7.45;6.75;;;;;;;;;;5036116;28;20057;-86
2023/09/29 01:08:37;;;;;;;7.57;6.85;;;;;;;;;;5032408;28;20507;-86
2023/09/29 01:11:05;;;;;;;7.55;6.70;;;;;;;;;;5023884;28;20085;-85
2023/09/29 01:13:33;;;;;;;7.38;6.57;;;;;;;;;;5029697;28;20054;-86
2023/09/29 01:16:00;;;;;;;7.43;6.72;;;;;;;;;;5040960;28;20046;-86
2023/09/29 01:18:29;;;;;;;8.77;6.85;;;;;;;;;;5038683;28;20050;-86
2023/09/29 01:20:56;;;;;;;8.43;7.03;;;;;;;;;;5034716;28;20132;-85
2023/09/29 01:23:24;;;;;;;7.32;6.57;;;;;;;;;;5032594;28;20042;-86
2023/09/29 01:25:51;;;;;;;7.18;6.57;;;;;;;;;;5041559;28;20116;-86
2023/09/29 01:28:20;;;;;;;8.30;6.95;;;;;;;;;;5035486;28;20447;-86
2023/09/29 01:30:53;;;;;;;7.25;6.55;;;;;;;;;;5035315;28;20053;-85
2023/09/29 01:33:23;;;;;;;9.43;6.80;;;;;;;;;;5037088;28;20099;-84
2023/09/29 01:35:52;;;;;;;7.03;6.43;;;;;;;;;;5036827;28;20099;-85
2023/09/29 01:38:19;;;;;;;16.73;8.30;;;;;;;;;;5035527;28;20045;-85
2023/09/29 01:40:47;;;;;;;8.75;7.28;;;;;;;;;;5036794;28;20050;-85
2023/09/29 01:43:16;;;;;;;7.28;6.57;;;;;;;;;;5035380;28;20053;-85
2023/09/29 01:45:43;;;;;;;7.95;7.20;;;;;;;;;;5035549;28;20136;-86
2023/09/29 01:48:12;;;;;;;10.30;7.75;;;;;;;;;;5019932;28;20510;-85
2023/09/29 01:50:40;;;;;;;7.93;7.15;;;;;;;;;;5035983;28;20057;-86
2023/09/29 01:53:11;;;;;;;8.25;7.13;;;;;;;;;;5036437;28;20053;-85
2023/09/29 01:55:39;;;;;;;12.70;7.65;;;;;;;;;;5031722;28;20125;-86
2023/09/29 01:58:07;;;;;;;9.73;7.78;;;;;;;;;;5015645;28;20458;-86
2023/09/29 02:00:35;;;;;;;7.13;6.53;;;;;;;;;;5019563;28;20487;-86
2023/09/29 02:03:06;;;;;;;8.35;6.70;;;;;;;;;;5031481;28;20046;-85
2023/09/29 02:05:33;;;;;;;7.80;7.00;;;;;;;;;;5028434;28;20514;-86
2023/09/29 02:08:04;;;;;;;9.93;7.07;;;;;;;;;;5024686;28;20469;-86
2023/09/29 02:10:32;;;;;;;9.50;7.60;;;;;;;;;;5046577;28;20053;-85
2023/09/29 02:12:59;;;;;;;7.78;6.97;;;;;;;;;;5031458;28;20480;-86
2023/09/29 02:15:34;;;;;;;8.32;6.85;;;;;;;;;;5014685;28;20046;-86
2023/09/29 02:18:02;;;;;;;8.65;6.68;;;;;;;;;;5021443;28;20419;-86
2023/09/29 02:20:31;;;;;;;6.65;6.07;;;;;;;;;;5031061;28;20096;-86
2023/09/29 02:22:59;;;;;;;7.57;6.93;;;;;;;;;;5034197;28;20057;-86
2023/09/29 02:25:29;;;;;;;7.30;6.57;;;;;;;;;;5034445;28;20108;-86
2023/09/29 02:28:01;;;;;;;10.57;7.57;;;;;;;;;;5034458;28;20399;-86
2023/09/29 02:30:29;;;;;;;8.52;7.10;;;;;;;;;;5031191;28;20375;-86
2023/09/29 02:32:57;;;;;;;8.88;7.30;;;;;;;;;;5014709;28;20053;-86
2023/09/29 02:35:24;;;;;;;11.25;7.07;;;;;;;;;;5018279;28;20133;-86
2023/09/29 02:37:52;;;;;;;11.07;7.10;;;;;;;;;;5037083;28;20533;-86
2023/09/29 02:40:22;;;;;;;8.40;7.60;;;;;;;;;;5040308;28;20045;-86
2023/09/29 02:42:50;;;;;;;10.68;7.57;;;;;;;;;;5034376;28;20391;-86
2023/09/29 02:45:18;;;;;;;10.93;7.47;;;;;;;;;;5022360;28;20465;-86
2023/09/29 02:47:46;;;;;;;11.65;7.22;;;;;;;;;;5031391;28;20050;-86
2023/09/29 02:50:16;;;;;;;20.10;6.78;;;;;;;;;;5026755;28;20057;-85
2023/09/29 02:52:48;;;;;;;11.65;7.55;;;;;;;;;;5025204;28;20050;-86
2023/09/29 02:55:16;;;;;;;9.65;7.13;;;;;;;;;;5024292;28;20121;-86
2023/09/29 02:57:44;;;;;;;12.18;6.82;;;;;;;;;;5028065;28;20046;-86
2023/09/29 03:00:18;;;;;;;10.32;7.70;;;;;;;;;;5020798;28;20415;-86
2023/09/29 03:02:45;;;;;;;;;;;;;;;;;;5038382;28;20476;-85
2023/09/29 03:05:15;;;;;;;10.82;8.55;;;;;;;;;;5037806;28;20379;-86
2023/09/29 03:07:43;;;;;;;8.10;7.32;;;;;;;;;;5038405;28;20045;-85
2023/09/29 03:10:15;;;;;;;8.77;7.88;;;;;;;;;;5046008;28;20065;-82
2023/09/29 03:12:42;;;;;;;7.65;6.95;;;;;;;;;;5059284;28;20037;-82
2023/09/29 03:15:12;;;;;;;8.52;7.63;;;;;;;;;;5043512;28;20099;-86
2023/09/29 03:17:39;;;;;;;7.68;7.05;;;;;;;;;;5034485;28;20057;-86
2023/09/29 03:20:10;;;;;;;8.48;7.22;;;;;;;;;;5031013;28;20491;-84
2023/09/29 03:22:43;;;;;;;8.10;6.93;;;;;;;;;;5031622;28;20054;-86
2023/09/29 03:25:11;;;;;;;8.32;7.63;;;;;;;;;;5034905;28;20388;-86
2023/09/29 03:27:39;;;;;;;11.50;7.80;;;;;;;;;;5034588;28;20093;-87
2023/09/29 03:30:08;;;;;;;12.45;7.70;;;;;;;;;;5035698;28;20148;-86
2023/09/29 03:32:36;;;;;;;11.10;7.65;;;;;;;;;;5036064;28;20053;-86
2023/09/29 03:35:08;;;;;;;9.45;7.47;;;;;;;;;;5034933;28;20518;-85
2023/09/29 03:37:36;;;;;;;7.55;6.85;;;;;;;;;;5032954;28;20049;-86
2023/09/29 03:40:10;;;;;;;9.73;7.28;;;;;;;;;;5031717;28;20442;-86
2023/09/29 03:42:41;;;;;;;7.97;7.25;;;;;;;;;;5036349;28;20077;-86
2023/09/29 03:45:11;;;;;;;9.23;6.90;;;;;;;;;;5031477;28;20133;-85
2023/09/29 03:47:38;;;;;;;7.78;6.80;;;;;;;;;;5023561;28;20050;-86
2023/09/29 03:50:11;;;;;;;9.95;6.72;;;;;;;;;;5025563;28;20060;-86
2023/09/29 03:52:40;;;;;;;9.32;7.53;;;;;;;;;;5035482;28;20053;-86
2023/09/29 03:55:09;;;;;;;8.00;7.30;;;;;;;;;;5037290;28;20132;-86
2023/09/29 03:57:44;;;;;;;11.23;7.80;;;;;;;;;;5030930;28;20050;-85
2023/09/29 04:00:13;;;;;;;7.90;7.13;;;;;;;;;;5016406;28;20046;-86
2023/09/29 04:02:41;;;;;;;8.10;7.30;;;;;;;;;;5040651;28;20045;-85
2023/09/29 04:05:11;;;;;;;9.38;7.78;;;;;;;;;;5034463;28;20049;-86
2023/09/29 04:07:42;;;;;;;10.80;7.05;;;;;;;;;;5037679;28;20057;-87
2023/09/29 04:10:11;;;;;;;8.38;7.43;;;;;;;;;;5045606;28;20056;-87
2023/09/29 04:12:39;;;;;;;10.05;7.35;;;;;;;;;;5057183;28;20057;-86
2023/09/29 04:15:06;;;;;;;8.80;7.75;;;;;;;;;;5051250;28;20045;-86
2023/09/29 04:17:37;;;;;;;10.85;7.97;;;;;;;;;;5051333;28;20052;-86
2023/09/29 04:20:06;;;;;;;9.57;8.25;;;;;;;;;;5051148;28;20048;-85
2023/09/29 04:22:34;;;;;;;9.57;7.30;;;;;;;;;;5037181;28;20084;-86
2023/09/29 04:25:05;;;;;;;9.40;7.43;;;;;;;;;;5037190;28;20046;-85
2023/09/29 04:27:33;;;;;;;7.75;7.05;;;;;;;;;;5035980;28;20049;-86
2023/09/29 04:30:00;;;;;;;8.50;7.70;;;;;;;;;;5033162;28;20083;-86
2023/09/29 04:32:27;;;;;;;9.68;7.45;;;;;;;;;;5026015;28;20053;-85
2023/09/29 04:34:55;;;;;;;11.50;8.95;;;;;;;;;;5029282;28;20046;-86
2023/09/29 04:37:22;;;;;;;8.63;7.80;;;;;;;;;;5016785;28;20042;-86
2023/09/29 04:39:49;;;;;;;9.20;8.07;;;;;;;;;;5032672;28;20052;-86
2023/09/29 04:42:18;;;;;;;13.93;8.65;;;;;;;;;;5030088;28;20542;-85
2023/09/29 04:44:45;;;;;;;8.60;7.40;;;;;;;;;;5031821;28;20049;-85
2023/09/29 04:47:13;;;;;;;9.77;7.45;;;;;;;;;;5033835;28;20510;-86
2023/09/29 04:49:41;;;;;;;10.65;7.22;;;;;;;;;;5030204;28;20056;-86
2023/09/29 04:52:08;;;;;;;12.45;7.90;;;;;;;;;;5036343;28;20049;-86
2023/09/29 04:54:37;;;;;;;7.93;6.93;;;;;;;;;;5037129;28;20106;-85
2023/09/29 04:57:04;;;;;;;8.77;7.07;;;;;;;;;;5036690;28;20072;-86
2023/09/29 04:59:31;;;;;;;8.93;6.72;;;;;;;;;;5036700;28;20065;-85
2023/09/29 05:02:00;;;;;;;7.70;6.78;;;;;;;;;;5036319;28;20408;-85
2023/09/29 05:04:27;;;;;;;9.88;7.50;;;;;;;;;;5038511;28;20053;-85
2023/09/29 05:06:54;;;;;;;10.10;7.13;;;;;;;;;;5038787;28;20053;-86
2023/09/29 05:09:22;;;;;;;7.53;6.82;;;;;;;;;;5032916;28;20050;-86
2023/09/29 05:11:49;;;;;;;7.53;6.82;;;;;;;;;;5050330;28;20396;-85
2023/09/29 05:14:16;;;;;;;10.07;7.45;;;;;;;;;;5037385;28;20096;-84
2023/09/29 05:16:44;;;;;;;8.55;6.90;;;;;;;;;;5036511;28;20045;-86
2023/09/29 05:19:11;;;;;;;11.30;6.97;;;;;;;;;;5032797;28;20048;-85
2023/09/29 05:21:38;;;;;;;8.85;7.03;;;;;;;;;;5028660;28;20077;-86
2023/09/29 05:24:06;;;;;;;11.27;7.78;;;;;;;;;;5028387;28;20091;-85
2023/09/29 05:26:33;;;;;;;9.43;7.47;;;;;;;;;;5034853;28;20050;-85
2023/09/29 05:29:01;;;;;;;14.05;7.40;;;;;;;;;;5032018;28;20173;-85
2023/09/29 05:31:28;;;;;;;9.52;7.28;;;;;;;;;;5041895;28;20403;-85
2023/09/29 05:33:55;;;;;;;7.85;7.10;;;;;;;;;;5038972;28;20053;-85
2023/09/29 05:36:23;;;;;;;8.52;7.53;;;;;;;;;;5045911;28;20056;-85
2023/09/29 05:38:51;;;;;;;12.95;7.57;;;;;;;;;;5054332;28;20053;-85
2023/09/29 05:41:18;;;;;;;9.93;8.25;;;;;;;;;;5041740;28;20569;-85
2023/09/29 05:43:45;;;;;;;13.10;7.97;;;;;;;;;;5041077;28;20065;-85
2023/09/29 05:46:12;;;;;;;13.38;7.20;;;;;;;;;;5041444;28;20076;-85
2023/09/29 05:48:41;;;;;;;21.17;9.82;;;;;;;;;;5040844;28;20060;-85
2023/09/29 05:51:08;;;;;;;17.17;9.35;;;;;;;;;;5043567;28;20061;-85
2023/09/29 05:53:35;;;;;;;15.07;9.05;;;;;;;;;;5042519;28;20052;-85
2023/09/29 05:56:08;;;;;;;18.83;10.13;;;;;;;;;;5041739;28;20050;-85
2023/09/29 05:58:39;;;;;;;11.07;9.82;;;;;;;;;;5042676;28;20045;-84
2023/09/29 06:01:13;;;;;;;11.50;8.80;;;;;;;;;;5036410;28;20057;-85
2023/09/29 06:03:41;;;;;;;13.05;9.18;;;;;;;;;;5044025;28;20107;-85
2023/09/29 06:06:09;;;;;;;18.27;9.20;;;;;;;;;;5043213;28;20045;-85
2023/09/29 06:08:36;;;;;;;21.08;9.10;;;;;;;;;;5060326;28;20035;-83
2023/09/29 06:11:21;;;;;;;15.38;8.15;;;;;;;;;;5032988;28;20411;-84
2023/09/29 06:13:49;;;;;;;14.05;8.98;;;;;;;;;;5033982;28;20050;-85
2023/09/29 06:16:16;;;;;;;27.02;9.02;;;;;;;;;;5040367;28;20436;-85
2023/09/29 06:18:43;;;;;;;12.65;8.45;;;;;;;;;;5038280;28;20042;-84
2023/09/29 06:21:12;;;;;;;23.48;9.40;;;;;;;;;;5037319;28;20049;-86
2023/09/29 06:23:39;;;;;;;15.75;9.25;;;;;;;;;;5037967;28;20046;-86
2023/09/29 06:26:07;;;;;;;15.10;9.32;;;;;;;;;;5036063;28;20053;-86
2023/09/29 06:28:34;;;;;;;22.83;10.88;;;;;;;;;;5036586;28;20053;-85
2023/09/29 06:31:02;;;;;;;23.75;10.98;;;;;;;;;;5037246;28;20049;-85
2023/09/29 06:33:29;;;;;;;28.02;11.50;;;;;;;;;;5037618;28;20136;-85
2023/09/29 06:35:56;;;;;;;22.73;11.95;;;;;;;;;;5038000;28;20103;-84
2023/09/29 06:38:24;;;;;;;29.00;12.18;;;;;;;;;;5037251;28;20045;-85
2023/09/29 06:40:51;;;;;;;20.58;9.75;;;;;;;;;;5046421;28;20537;-86
2023/09/29 06:43:18;;;;;;;18.27;9.57;;;;;;;;;;5038918;28;20132;-86
2023/09/29 06:45:46;;;;;;;13.40;9.70;;;;;;;;;;5036130;28;20073;-86
2023/09/29 06:48:16;;;;;;;18.30;8.52;;;;;;;;;;5037111;28;20045;-85
2023/09/29 06:50:46;;;;;;;24.55;9.07;;;;;;;;;;5033182;28;20463;-85
2023/09/29 06:53:14;;;;;;;24.95;10.63;;;;;;;;;;5036390;28;20137;-86
2023/09/29 06:55:41;;;;;;;17.63;8.35;;;;;;;;;;5030724;28;20053;-85
2023/09/29 06:58:08;;;;;;;16.33;9.25;;;;;;;;;;5033954;28;20045;-85
2023/09/29 07:00:35;;;;;;;23.33;9.73;;;;;;;;;;5034495;28;20046;-85
2023/09/29 07:03:03;;;;;;;19.40;9.27;;;;;;;;;;5033596;28;20069;-84
2023/09/29 07:05:30;;;;;;;22.85;8.80;;;;;;;;;;5034592;28;20095;-85
2023/09/29 07:07:58;;;;;;;22.15;8.50;;;;;;;;;;5032711;28;20064;-85
2023/09/29 07:10:26;;;;;;;15.27;8.15;;;;;;;;;;5033811;28;20523;-85
2023/09/29 07:12:53;;;;;;;23.25;7.32;;;;;;;;;;5034801;28;20060;-85
2023/09/29 07:15:20;;;;;;;25.17;7.65;;;;;;;;;;5033729;28;20064;-85
2023/09/29 07:17:50;;;;;;;28.25;7.85;;;;;;;;;;5030716;28;20045;-86
2023/09/29 07:20:18;;;;;;;23.77;7.15;;;;;;;;;;5031159;28;20045;-85
2023/09/29 07:22:45;;;;;;;18.27;7.03;;;;;;;;;;5040686;28;20107;-85
2023/09/29 07:25:14;;;;;;;14.95;6.60;;;;;;;;;;5032012;28;20133;-85
2023/09/29 07:27:42;;;;;;;12.90;6.22;;;;;;;;;;5033272;28;20046;-85
2023/09/29 07:30:09;;;;;;;16.73;6.38;;;;;;;;;;5025857;28;20052;-84
2023/09/29 07:32:41;;;;;;;13.13;7.03;;;;;;;;;;5038187;28;20045;-85
2023/09/29 07:35:08;;;;;;;14.73;6.15;;;;;;;;;;5034580;28;20053;-85
2023/09/29 07:37:38;;;;;;;13.98;6.25;;;;;;;;;;5034613;28;20052;-86
2023/09/29 07:40:09;;;;;;;16.58;5.57;;;;;;;;;;5034267;28;20041;-86
2023/09/29 07:42:37;;;;;;;24.48;6.72;;;;;;;;;;5033544;28;20534;-85
2023/09/29 07:45:08;;;;;;;17.83;7.50;;;;;;;;;;5030662;28;20041;-85
2023/09/29 07:47:35;;;;;;;17.30;7.72;;;;;;;;;;5036400;28;20049;-85
2023/09/29 07:50:05;;;;;;;15.45;7.43;;;;;;;;;;5026873;28;20132;-85
2023/09/29 07:52:37;;;;;;;17.45;8.93;;;;;;;;;;5033703;28;20438;-85
2023/09/29 07:55:05;;;;;;;16.95;6.10;;;;;;;;;;5029119;28;20050;-85
2023/09/29 07:57:33;;;;;;;13.60;6.90;;;;;;;;;;5014463;28;20053;-85
2023/09/29 08:00:01;;;;;;;17.25;6.30;;;;;;;;;;5014115;28;20042;-85
2023/09/29 08:02:28;;;;;;;18.67;7.55;;;;;;;;;;5018951;28;20053;-86
2023/09/29 08:04:57;;;;;;;20.10;6.35;;;;;;;;;;5031520;28;20041;-85
2023/09/29 08:07:24;;;;;;;24.27;7.60;;;;;;;;;;5037438;28;20050;-86
2023/09/29 08:09:53;;;;;;;34.83;9.23;;;;;;;;;;5030695;28;20042;-85
2023/09/29 08:12:20;;;;;;;38.65;8.48;;;;;;;;;;5030291;28;20042;-85
2023/09/29 08:14:48;;;;;;;24.90;6.18;;;;;;;;;;5035260;28;20049;-85
2023/09/29 08:17:15;;;;;;;18.33;6.28;;;;;;;;;;5047467;28;20079;-85
2023/09/29 08:19:42;;;;;;;17.95;4.53;;;;;;;;;;5041149;28;20091;-85
2023/09/29 08:22:11;;;;;;;3.63;3.20;;;;;;;;;;5033804;28;20136;-85
2023/09/29 08:24:39;;;;;;;9.30;3.10;;;;;;;;;;5034198;28;20050;-85
2023/09/29 08:27:06;;;;;;;3.80;3.20;;;;;;;;;;5036354;28;20053;-85
2023/09/29 08:29:35;;;;;;;4.28;2.80;;;;;;;;;;5031141;28;20103;-86
2023/09/29 08:32:02;;;;;;;3.72;3.05;;;;;;;;;;5020351;28;20507;-84
2023/09/29 08:34:34;;;;;;;5.85;3.38;;;;;;;;;;5037657;28;20055;-85
2023/09/29 08:37:01;;;;;;;4.53;2.83;;;;;;;;;;5038722;28;20079;-84
2023/09/29 08:39:29;;;;;;;4.10;3.10;;;;;;;;;;5039428;28;20049;-84
2023/09/29 08:42:04;;;;;;;5.65;3.05;;;;;;;;;;5021499;28;20049;-86
2023/09/29 08:44:33;;;;;;;3.05;2.90;;;;;;;;;;5036952;28;20053;-84
2023/09/29 08:47:01;;;;;;;5.57;2.95;;;;;;;;;;5041151;28;20049;-85
2023/09/29 08:49:29;;;;;;;4.40;2.78;;;;;;;;;;5042811;28;20049;-85
2023/09/29 08:52:19;;;;;;;3.35;2.92;;;;;;;;;;5035597;28;20593;-85
2023/09/29 08:54:47;;;;;;;4.35;3.15;;;;;;;;;;5041948;28;20056;-85
2023/09/29 08:57:15;;;;;;;8.05;3.13;;;;;;;;;;5054534;28;20029;-82
2023/09/29 08:59:44;;;;;;;3.33;2.97;;;;;;;;;;5059401;28;20056;-85
2023/09/29 09:02:11;;;;;;;5.90;3.30;;;;;;;;;;5039387;28;20067;-86
2023/09/29 09:04:41;;;;;;;4.43;3.15;;;;;;;;;;5041020;28;20045;-85
2023/09/29 09:07:12;;;;;;;3.90;3.25;;;;;;;;;;5020056;28;20501;-86
2023/09/29 09:09:53;;;;;;;3.42;3.13;;;;;;;;;;5035718;28;20124;-86
2023/09/29 09:12:33;;;;;;;5.35;3.63;;;;;;;;;;5040887;28;20041;-85
2023/09/29 09:15:00;;;;;;;3.25;2.90;;;;;;;;;;5034358;28;20572;-86
2023/09/29 09:17:31;;;;;;;4.22;3.17;;;;;;;;;;5035222;28;20100;-85
2023/09/29 09:19:58;;;;;;;9.82;4.03;;;;;;;;;;5036536;28;20057;-87
2023/09/29 09:22:39;;;;;;;3.80;2.95;;;;;;;;;;5036078;28;20049;-86
2023/09/29 09:25:14;;;;;;;4.22;3.05;;;;;;;;;;5040461;28;20054;-86
2023/09/29 09:27:44;;;;;;;3.30;2.95;;;;;;;;;;5041831;28;20049;-85
2023/09/29 09:30:22;;;;;;;5.10;3.40;;;;;;;;;;5034806;28;20447;-86
2023/09/29 09:32:50;;;;;;;3.45;3.08;;;;;;;;;;5043101;28;20467;-86
2023/09/29 09:35:28;;;;;;;3.17;2.80;;;;;;;;;;5043116;28;20080;-84
2023/09/29 09:37:57;;;;;;;5.18;3.20;;;;;;;;;;5041488;28;20507;-86
2023/09/29 09:40:25;;;;;;;3.03;2.70;;;;;;;;;;5038710;28;20084;-85
2023/09/29 09:43:03;;;;;;;3.05;2.85;;;;;;;;;;5047320;28;20446;-86
2023/09/29 09:45:37;;;;;;;3.72;3.10;;;;;;;;;;5041929;28;20068;-83
2023/09/29 09:48:31;;;;;;;3.33;2.45;;;;;;;;;;5040942;28;20049;-85
2023/09/29 09:50:58;;;;;;;3.00;2.70;;;;;;;;;;5034775;28;20059;-86
2023/09/29 09:53:31;;;;;;;3.78;2.90;;;;;;;;;;5034547;28;20069;-87
2023/09/29 09:56:26;;;;;;;3.65;2.88;;;;;;;;;;5034539;28;20096;-87
2023/09/29 09:58:53;;;;;;;4.60;2.80;;;;;;;;;;5019323;28;20076;-85
2023/09/29 10:01:22;;;;;;;3.00;2.60;;;;;;;;;;5049124;28;20132;-86
2023/09/29 10:03:51;;;;;;;5.22;3.20;;;;;;;;;;5041431;28;20053;-82
2023/09/29 10:06:21;;;;;;;5.53;3.05;;;;;;;;;;5041483;28;20522;-85
2023/09/29 10:09:00;;;;;;;3.45;3.00;;;;;;;;;;5041999;28;20053;-82
2023/09/29 10:11:31;;;;;;;2.90;2.70;;;;;;;;;;5041858;28;20513;-84
2023/09/29 10:14:08;;;;;;;2.95;2.72;;;;;;;;;;5042236;28;20053;-85
2023/09/29 10:16:36;;;;;;;2.95;2.63;;;;;;;;;;5040824;28;20509;-85
2023/09/29 10:19:12;;;;;;;5.03;2.92;;;;;;;;;;5041529;28;20055;-83
2023/09/29 10:21:43;;;;;;;2.88;2.67;;;;;;;;;;5041312;28;20518;-84
2023/09/29 10:24:31;;;;;;;3.50;3.00;;;;;;;;;;5016669;28;20049;-86
2023/09/29 10:29:50;;;;;;;6.38;2.72;;;;;;;;;;5017172;28;20054;-86
2023/09/29 10:32:31;;;;;;;3.92;3.10;;;;;;;;;;5035043;28;20049;-86
2023/09/29 10:35:11;;;;;;;9.25;2.88;;;;;;;;;;5034848;28;20055;-86
2023/09/29 10:37:41;;;;;;;4.30;2.70;;;;;;;;;;5035457;28;20137;-86
2023/09/29 10:40:22;;;;;;;4.32;3.08;;;;;;;;;;5034539;28;20479;-86
2023/09/29 10:42:54;;;;;;;4.28;3.00;;;;;;;;;;5031779;28;20141;-86
2023/09/29 10:45:56;;;;;;;3.38;2.60;;;;;;;;;;5034823;28;20053;-87
2023/09/29 10:48:24;;;;;;;5.95;3.08;;;;;;;;;;5034074;28;20122;-86
2023/09/29 10:50:55;;;;;;;5.28;3.10;;;;;;;;;;5033766;28;20057;-86
2023/09/29 10:53:23;;;;;;;2.92;2.72;;;;;;;;;;5035308;28;20080;-86
2023/09/29 10:55:51;;;;;;;6.65;2.97;;;;;;;;;;5030388;28;20053;-86
2023/09/29 10:58:19;;;;;;;6.85;2.70;;;;;;;;;;5014147;28;20088;-86
2023/09/29 11:00:50;;;;;;;3.35;2.88;;;;;;;;;;5026903;28;20045;-86
2023/09/29 11:03:19;;;;;;;4.53;2.72;;;;;;;;;;5034535;28;20057;-86
2023/09/29 11:06:08;;;;;;;3.90;3.25;;;;;;;;;;5039223;28;20053;-86
2023/09/29 11:08:42;;;;;;;6.85;3.35;;;;;;;;;;5041813;28;20495;-85
2023/09/29 11:11:11;;;;;;;4.00;2.83;;;;;;;;;;5044180;28;20113;-86
2023/09/29 11:13:38;;;;;;;4.00;2.72;;;;;;;;;;5043876;28;20045;-86
2023/09/29 11:16:16;;;;;;;3.10;2.80;;;;;;;;;;5043977;28;20061;-87
2023/09/29 11:18:47;;;;;;;3.80;2.80;;;;;;;;;;5041083;28;20049;-86
2023/09/29 11:21:16;;;;;;;5.72;2.60;;;;;;;;;;5039853;28;20045;-87
2023/09/29 11:23:45;;;;;;;4.45;2.67;;;;;;;;;;5033543;28;20483;-87
2023/09/29 11:26:21;;;;;;;3.50;2.42;;;;;;;;;;5013861;28;20412;-86
2023/09/29 11:28:49;;;;;;;3.75;2.60;;;;;;;;;;5037978;28;20053;-87
2023/09/29 11:31:16;;;;;;;4.15;2.70;;;;;;;;;;5044086;28;20132;-86
2023/09/29 11:33:45;;;;;;;3.20;2.65;;;;;;;;;;5038608;28;20046;-87
2023/09/29 11:36:17;;;;;;;2.70;2.50;;;;;;;;;;5037436;28;20064;-86
2023/09/29 11:38:45;;;;;;;3.15;2.47;;;;;;;;;;5046558;28;20101;-87
2023/09/29 11:41:24;;;;;;;2.95;2.65;;;;;;;;;;5044414;28;20061;-87
2023/09/29 11:43:51;;;;;;;2.65;2.42;;;;;;;;;;5044215;28;20079;-85
2023/09/29 11:46:18;;;;;;;3.33;2.65;;;;;;;;;;5044761;28;20049;-87
2023/09/29 11:48:46;;;;;;;2.90;2.25;;;;;;;;;;5053756;28;20045;-87
2023/09/29 11:51:14;;;;;;;7.22;2.53;;;;;;;;;;5057965;28;20056;-88
2023/09/29 11:53:44;;;;;;;3.22;2.80;;;;;;;;;;5043711;28;20088;-85
2023/09/29 11:56:12;;;;;;;6.68;2.60;;;;;;;;;;5040732;28;20053;-87
2023/09/29 11:58:42;;;;;;;2.55;2.35;;;;;;;;;;5041191;28;20495;-87
2023/09/29 12:01:20;;;;;;;4.70;2.67;;;;;;;;;;5040993;28;20060;-86
2023/09/29 12:03:47;;;;;;;4.15;2.33;;;;;;;;;;5042099;28;20056;-88
2023/09/29 12:06:15;;;;;;;3.95;2.28;;;;;;;;;;5038447;28;20041;-87
2023/09/29 12:08:42;;;;;;;3.42;2.55;;;;;;;;;;5043725;28;20050;-86
2023/09/29 12:11:10;;;;;;;2.83;2.40;;;;;;;;;;5051702;28;20049;-87
2023/09/29 12:13:39;;;;;;;5.88;2.38;;;;;;;;;;5046403;28;20053;-86
2023/09/29 12:16:10;;;;;;;3.30;2.40;;;;;;;;;;5032585;28;20053;-87
2023/09/29 12:18:37;;;;;;;3.97;2.50;;;;;;;;;;5017003;28;20498;-86
2023/09/29 12:21:11;;;;;;;11.55;2.58;;;;;;;;;;5032337;28;20045;-84
2023/09/29 12:23:40;;;;;;;4.30;2.30;;;;;;;;;;5034610;28;20074;-87
2023/09/29 12:26:14;;;;;;;2.83;2.63;;;;;;;;;;5037713;28;20048;-87
2023/09/29 12:28:41;;;;;;;5.35;2.40;;;;;;;;;;5036578;28;20380;-87
2023/09/29 12:31:20;;;;;;;2.80;2.60;;;;;;;;;;5039069;28;20072;-85
2023/09/29 12:33:47;;;;;;;2.47;2.15;;;;;;;;;;5037231;28;20047;-87
2023/09/29 12:36:37;;;;;;;2.80;2.50;;;;;;;;;;5038077;28;20045;-85
2023/09/29 12:39:04;;;;;;;2.60;2.38;;;;;;;;;;5034796;28;20049;-86
2023/09/29 12:41:31;;;;;;;2.80;2.60;;;;;;;;;;5033585;28;20049;-85
2023/09/29 12:43:59;;;;;;;4.05;2.25;;;;;;;;;;5038077;28;20050;-86
2023/09/29 12:46:26;;;;;;;3.95;2.38;;;;;;;;;;5037921;28;20049;-84
2023/09/29 12:48:55;;;;;;;2.60;2.40;;;;;;;;;;5038706;28;20042;-87
2023/09/29 12:51:32;;;;;;;4.82;2.50;;;;;;;;;;5036390;28;20426;-87
2023/09/29 12:53:59;;;;;;;3.08;2.30;;;;;;;;;;5037610;28;20057;-85
2023/09/29 12:56:32;;;;;;;2.78;2.50;;;;;;;;;;5037672;28;20050;-84
2023/09/29 12:59:00;;;;;;;6.90;2.55;;;;;;;;;;5037651;28;20099;-87
2023/09/29 13:01:28;;;;;;;3.88;2.40;;;;;;;;;;5035555;28;20064;-85
2023/09/29 13:04:00;;;;;;;4.50;2.25;;;;;;;;;;5036775;28;20056;-87
2023/09/29 13:06:29;;;;;;;;;;;;;;;;;;5037902;28;20156;-86
2023/09/29 13:08:57;;;;;;;5.10;2.47;;;;;;;;;;5034572;28;20008;-85
2023/09/29 13:11:27;;;;;;;2.50;2.30;;;;;;;;;;5018775;28;20050;-86
2023/09/29 13:13:56;;;;;;;2.75;2.42;;;;;;;;;;5032393;28;20392;-84
2023/09/29 13:16:29;;;;;;;8.95;2.35;;;;;;;;;;5037453;28;20045;-86
2023/09/29 13:18:56;;;;;;;3.83;2.45;;;;;;;;;;5037816;28;20049;-83
2023/09/29 13:21:27;;;;;;;2.92;2.28;;;;;;;;;;5037418;28;20136;-86
2023/09/29 13:24:04;;;;;;;2.40;2.20;;;;;;;;;;5038788;28;20108;-85
2023/09/29 13:26:31;;;;;;;5.60;2.25;;;;;;;;;;5041010;28;20076;-86
2023/09/29 13:28:59;;;;;;;15.90;2.90;;;;;;;;;;5041183;28;20053;-86
2023/09/29 13:31:33;;;;;;;4.38;2.65;;;;;;;;;;5041332;28;20501;-86
2023/09/29 13:34:00;;;;;;;7.47;2.95;;;;;;;;;;5040717;28;20046;-86
2023/09/29 13:36:28;;;;;;;3.55;2.42;;;;;;;;;;5040936;28;20501;-87
2023/09/29 13:38:55;;;;;;;4.60;2.72;;;;;;;;;;5041370;28;20111;-86
2023/09/29 13:41:24;;;;;;;5.95;2.67;;;;;;;;;;5040308;28;20549;-85
2023/09/29 13:43:55;;;;;;;6.40;2.80;;;;;;;;;;5039943;28;20128;-84
2023/09/29 13:46:23;;;;;;;4.53;2.40;;;;;;;;;;5040917;28;20110;-86
2023/09/29 13:48:50;;;;;;;5.68;2.70;;;;;;;;;;5041955;28;20487;-85
2023/09/29 13:51:19;;;;;;;3.47;2.55;;;;;;;;;;5039328;28;20084;-83
2023/09/29 13:53:54;;;;;;;5.38;3.03;;;;;;;;;;5040542;28;20049;-87
2023/09/29 13:56:27;;;;;;;13.30;2.92;;;;;;;;;;5037341;28;20058;-85
2023/09/29 13:59:00;;;;;;;5.07;2.50;;;;;;;;;;5025818;28;20045;-86
2023/09/29 14:01:29;;;;;;;6.05;2.40;;;;;;;;;;5035230;28;20050;-87
2023/09/29 14:03:58;;;;;;;2.60;2.40;;;;;;;;;;5035550;28;20041;-87
2023/09/29 14:06:29;;;;;;;6.07;2.50;;;;;;;;;;5036737;28;20101;-87
2023/09/29 14:08:56;;;;;;;6.88;2.30;;;;;;;;;;5038831;28;20053;-85
2023/09/29 14:11:39;;;;;;;4.10;2.47;;;;;;;;;;5042433;28;20136;-86
2023/09/29 14:14:07;;;;;;;3.67;2.88;;;;;;;;;;5038842;28;20061;-87
2023/09/29 14:16:34;;;;;;;3.63;2.45;;;;;;;;;;5041509;28;20057;-87
2023/09/29 14:19:01;;;;;;;5.28;2.90;;;;;;;;;;5040700;28;20099;-87
2023/09/29 14:21:29;;;;;;;7.60;4.68;;;;;;;;;;5041812;28;20426;-87
2023/09/29 14:23:56;;;;;;;5.70;3.33;;;;;;;;;;5040260;28;20041;-88
2023/09/29 14:26:24;;;;;;;6.63;2.47;;;;;;;;;;5043051;28;20045;-86
2023/09/29 14:28:51;;;;;;;4.00;2.30;;;;;;;;;;5040804;28;20111;-88
2023/09/29 14:31:19;;;;;;;5.70;2.67;;;;;;;;;;5041919;28;20148;-89
2023/09/29 14:33:46;;;;;;;4.45;3.00;;;;;;;;;;5044893;28;20069;-88
2023/09/29 14:36:13;;;;;;;3.58;2.60;;;;;;;;;;5042758;28;20057;-87
2023/09/29 14:38:41;;;;;;;3.47;2.83;;;;;;;;;;5056399;28;20057;-88
2023/09/29 14:41:09;;;;;;;2.92;2.50;;;;;;;;;;5050569;28;20045;-87
2023/09/29 14:43:37;;;;;;;2.75;2.65;;;;;;;;;;5038999;28;20072;-87
2023/09/29 14:46:05;;;;;;;6.82;3.03;;;;;;;;;;5038506;28;20067;-87
2023/09/29 14:48:34;;;;;;;7.20;2.47;;;;;;;;;;5037907;28;20488;-87
2023/09/29 14:51:07;;;;;;;11.68;3.58;;;;;;;;;;5038219;28;20423;-87
2023/09/29 14:53:35;;;;;;;17.30;3.50;;;;;;;;;;5038871;28;20499;-88
2023/09/29 14:56:05;;;;;;;11.45;3.55;;;;;;;;;;5038141;28;20053;-87
2023/09/29 14:58:34;;;;;;;14.77;3.22;;;;;;;;;;5023067;28;20069;-87